Faxinal, Brazil
Current Conditions -  °F | °C
As of 8:00 AM on Sunday 21 Dec 2014 (Local Time) from SBLO Reporting Station
Broken Clouds Broken Clouds  
Wind Chill: 73°   Ceiling: 600
Heat Index: 73°   Visibility: 6mi
Dew Point: 72°   Wind: 8mph
Humidity: 94%   Direction: 50°NE
Pressure: 29.85"   Gusts: NA
Location:  24°S, 51.32°W
Report Text: SBLO 211000Z 05007KT 9999 BKN006 23/22 Q1011
Loading
Personal Weather Stations






























Interactive Weather Map New forecast layout! Learn more

10-Day Weather Forecast

Advertisements
Track Severe Weather on mobile